Byron, CA (94514)

7:18 AM PDT on August 23, 2017 (GMT -0700)
Beacon Pl | | Change Station

Elev 10 ft 37.90 °N, 121.62 °W | Updated 26 seconds ago

Partly Cloudy
Partly Cloudy
65.5 °F
Feels Like 65.5 °F
N
0.0
Wind Variable Wind from West

Today
High -- | Low -- °F
--% Chance of Precip.
Yesterday
High -- | Low -- °F
Precip. -- in
Pressure 29.97 in
Visibility 3.0 miles
Clouds Mostly Cloudy 900 ft
Dew Point 56 °F
Humidity 71%
Rainfall 0.00 in
Snow Depth Not available.
6:29 AM 7:48 PM
Waxing Crescent, 4% visible
SPECI KLVK 231409Z 28007KT 3SM BR BKN009 14/13 A2997 RMK AO2 T01440133
Pressure 29.97 in
Visibility 3.0 miles
Clouds Mostly Cloudy 900 ft
Dew Point 56 °F
Humidity 71%
Rainfall 0.00 in
Snow Depth Not available.
6:29 AM 7:48 PM
Waxing Crescent, 4% visible
SPECI KLVK 231409Z 28007KT 3SM BR BKN009 14/13 A2997 RMK AO2 T01440133

Get Severe Weather Alerts

Thanks for signing up!

Be on the lookout for a verification email in your inbox.

You'll start receiving the daily forecast at 6 AM.

×

10-Day Weather Forecast

Almanac

Astronomy

Aug. 23, 2017 Rise Set
Actual Time
Civil Twilight
Nautical Twilight
Astronomical Twilight
Moon
Length of Visible Light
Length of Day
Tomorrow will be .
, % of the Moon is Illuminated

Today's Extremes

State Highs State Lows

Community

WunderPhotos

Category 6

Welcome to Category 6. This is the collective home for Weather Underground's featured writeups by Dr. Jeff Masters (right), Bob Henson (left), Chris Burt, and other regular contributors.

Nearby

Air Quality

  Air Quality AQ Index Pollutant
Not available.

Snow Depth

Station Depth Elevation

Earthquake Activity

City Distance Mag. Time & Date
Minimum magnitude displayed is 2.5.

Coastal Water Temperatures

Place Temperature

Stations

Nearby Weather Stations

Station Location Temp. Windchill Dew Point Humidity Wind Precip. Elev Updated Type
                   

Watches & Warnings

There are currently no watches in effect.